To NAV CANADA Home Page Login to a new session Search on AWWS site Disclaimer Vers la page française équivalente Tips FAQ What's new on the site To the Forecasts and Observations / NOTAM section To "File a Flight Plan" website Publications and other links Update of the User's profile FIC Telephone Numbers My Weather Data Folder Route Weather Data Regional Weather Data Local Weather Data To the Forecasts and Observations / NOTAM section
Request Generated 02/23/2020 at 09:47:31 UTC . Weather information available at that time is displayed.

METAR/TAF

SCHEFFERVILLE/QC    (show WxCam)

METAR CYKL 230900Z AUTO 05005KT 320V060 9SM CLR M19/M21 A2957 RMK SLP060=
SPECI CYKL 230832Z AUTO 31008KT 9SM BKN046 M18/M20 A2955 RMK SLP053=
SPECI CYKL 230815Z AUTO 31008KT 9SM -SN OVC046 M17/M20 A2954 RMK SLP050=
METAR CYKL 230800Z AUTO 32007KT 9SM OVC046 M17/M20 A2954 RMK SLP048=
METAR CYKL 230700Z AUTO 29009KT 9SM FEW075 M17/M20 A2952 RMK SLP040=

TAF CYKL 230738Z 2308/2320 30010KT P6SM SCT020 TEMPO 2308/2312 P6SM
-SHSN OVC020
FM231200 31008KT P6SM BKN030 TEMPO 2312/2320 BKN015
BECMG 2313/2315 34005KT
RMK FCST BASED ON AUTO OBS. NXT FCST BY 231400Z=
Your time UTC time
Weather data provided by Environment Canada and NAV CANADA